sensor_id;sensor_type;location;lat;lon;timestamp;pressure;altitude;pressure_sealevel;temperature;humidity
75420;BME280;63998;52.488;13.428;2022-12-18T00:00:29;102773.06;;;-3.27;77.61
75420;BME280;63998;52.488;13.428;2022-12-18T00:02:55;102778.94;;;-3.55;76.37
75420;BME280;63998;52.488;13.428;2022-12-18T00:05:23;102776.78;;;-3.69;76.45
75420;BME280;63998;52.488;13.428;2022-12-18T00:07:50;102781.22;;;-3.85;76.81
75420;BME280;63998;52.488;13.428;2022-12-18T00:10:19;102788.91;;;-3.75;77.53
75420;BME280;63998;52.488;13.428;2022-12-18T00:12:44;102783.19;;;-3.64;77.45
75420;BME280;63998;52.488;13.428;2022-12-18T00:15:09;102779.69;;;-3.56;77.89
75420;BME280;63998;52.488;13.428;2022-12-18T00:17:37;102779.13;;;-3.62;78.27
75420;BME280;63998;52.488;13.428;2022-12-18T00:20:08;102790.50;;;-3.94;77.25
75420;BME280;63998;52.488;13.428;2022-12-18T00:22:33;102784.38;;;-3.69;77.79
75420;BME280;63998;52.488;13.428;2022-12-18T00:24:59;102780.63;;;-3.64;78.22
75420;BME280;63998;52.488;13.428;2022-12-18T00:27:25;102783.56;;;-3.78;78.45
75420;BME280;63998;52.488;13.428;2022-12-18T00:29:50;102777.53;;;-3.70;77.34
75420;BME280;63998;52.488;13.428;2022-12-18T00:32:18;102786.28;;;-3.85;77.62
75420;BME280;63998;52.488;13.428;2022-12-18T00:34:46;102783.00;;;-3.84;77.47
75420;BME280;63998;52.488;13.428;2022-12-18T00:37:11;102776.91;;;-3.68;78.09
75420;BME280;63998;52.488;13.428;2022-12-18T00:39:36;102777.94;;;-3.93;76.79
75420;BME280;63998;52.488;13.428;2022-12-18T00:42:02;102780.38;;;-4.03;77.09
75420;BME280;63998;52.488;13.428;2022-12-18T00:44:45;102774.38;;;-3.95;77.68
75420;BME280;63998;52.488;13.428;2022-12-18T00:47:11;102781.28;;;-4.03;77.94
75420;BME280;63998;52.488;13.428;2022-12-18T00:49:39;102773.53;;;-4.04;77.36
75420;BME280;63998;52.488;13.428;2022-12-18T00:52:06;102772.56;;;-3.87;78.65
75420;BME280;63998;52.488;13.428;2022-12-18T00:54:34;102768.50;;;-4.13;78.21
75420;BME280;63998;52.488;13.428;2022-12-18T00:56:59;102762.56;;;-4.22;77.30
75420;BME280;63998;52.488;13.428;2022-12-18T00:59:27;102770.34;;;-4.29;77.41
75420;BME280;63998;52.488;13.428;2022-12-18T01:01:52;102765.88;;;-4.23;78.22
75420;BME280;63998;52.488;13.428;2022-12-18T01:04:20;102769.41;;;-4.12;78.46
75420;BME280;63998;52.488;13.428;2022-12-18T01:06:48;102771.97;;;-3.93;78.57
75420;BME280;63998;52.488;13.428;2022-12-18T01:09:16;102766.50;;;-3.98;77.83
75420;BME280;63998;52.488;13.428;2022-12-18T01:11:43;102774.34;;;-3.86;77.25
75420;BME280;63998;52.488;13.428;2022-12-18T01:14:11;102778.84;;;-3.92;76.74
75420;BME280;63998;52.488;13.428;2022-12-18T01:16:36;102774.06;;;-3.89;77.51
75420;BME280;63998;52.488;13.428;2022-12-18T01:19:01;102797.44;;;-4.11;76.94
75420;BME280;63998;52.488;13.428;2022-12-18T01:21:27;102795.06;;;-4.18;77.08
75420;BME280;63998;52.488;13.428;2022-12-18T01:23:54;102794.59;;;-4.50;77.09
75420;BME280;63998;52.488;13.428;2022-12-18T01:26:24;102793.41;;;-4.53;77.10
75420;BME280;63998;52.488;13.428;2022-12-18T01:28:49;102800.63;;;-4.84;77.70
75420;BME280;63998;52.488;13.428;2022-12-18T01:31:17;102807.75;;;-4.62;78.40
75420;BME280;63998;52.488;13.428;2022-12-18T01:33:44;102809.81;;;-4.50;78.48
75420;BME280;63998;52.488;13.428;2022-12-18T01:36:21;102806.50;;;-4.40;79.27
75420;BME280;63998;52.488;13.428;2022-12-18T01:38:47;102805.31;;;-4.52;78.49
75420;BME280;63998;52.488;13.428;2022-12-18T01:41:13;102803.66;;;-4.43;78.68
75420;BME280;63998;52.488;13.428;2022-12-18T01:43:48;102800.81;;;-4.38;78.23
75420;BME280;63998;52.488;13.428;2022-12-18T01:46:14;102806.81;;;-4.54;77.65
75420;BME280;63998;52.488;13.428;2022-12-18T01:48:40;102804.41;;;-4.44;77.83
75420;BME280;63998;52.488;13.428;2022-12-18T01:51:10;102807.00;;;-4.61;77.60
75420;BME280;63998;52.488;13.428;2022-12-18T01:53:37;102815.28;;;-4.37;77.88
75420;BME280;63998;52.488;13.428;2022-12-18T01:56:03;102802.88;;;-4.25;77.71
75420;BME280;63998;52.488;13.428;2022-12-18T01:58:43;102810.53;;;-3.97;78.59
75420;BME280;63998;52.488;13.428;2022-12-18T02:01:11;102817.16;;;-4.17;77.09
75420;BME280;63998;52.488;13.428;2022-12-18T02:03:36;102815.03;;;-4.04;77.35
75420;BME280;63998;52.488;13.428;2022-12-18T02:06:13;102820.59;;;-3.80;77.63
75420;BME280;63998;52.488;13.428;2022-12-18T02:08:43;102812.88;;;-3.90;77.01
75420;BME280;63998;52.488;13.428;2022-12-18T02:11:23;102805.59;;;-3.69;76.97
75420;BME280;63998;52.488;13.428;2022-12-18T02:17:01;102818.41;;;-4.39;74.75
75420;BME280;63998;52.488;13.428;2022-12-18T02:19:54;102808.31;;;-4.56;75.74
75420;BME280;63998;52.488;13.428;2022-12-18T02:22:34;102816.34;;;-4.43;76.23
75420;BME280;63998;52.488;13.428;2022-12-18T02:28:00;102823.09;;;-4.08;77.54
75420;BME280;63998;52.488;13.428;2022-12-18T02:30:32;102819.28;;;-4.30;76.29
75420;BME280;63998;52.488;13.428;2022-12-18T02:33:00;102823.69;;;-4.46;76.17
75420;BME280;63998;52.488;13.428;2022-12-18T02:35:32;102829.63;;;-4.37;76.65
75420;BME280;63998;52.488;13.428;2022-12-18T02:38:01;102826.53;;;-4.60;77.16
75420;BME280;63998;52.488;13.428;2022-12-18T02:40:28;102831.91;;;-4.75;76.42
75420;BME280;63998;52.488;13.428;2022-12-18T02:43:12;102848.75;;;-4.66;77.21
75420;BME280;63998;52.488;13.428;2022-12-18T02:46:27;102837.53;;;-4.51;77.26
75420;BME280;63998;52.488;13.428;2022-12-18T02:49:01;102831.28;;;-4.46;77.96
75420;BME280;63998;52.488;13.428;2022-12-18T02:51:33;102848.31;;;-4.62;78.07
75420;BME280;63998;52.488;13.428;2022-12-18T02:54:10;102852.47;;;-4.63;77.30
75420;BME280;63998;52.488;13.428;2022-12-18T02:56:49;102841.88;;;-4.50;77.61
75420;BME280;63998;52.488;13.428;2022-12-18T02:59:20;102837.84;;;-4.57;77.29
75420;BME280;63998;52.488;13.428;2022-12-18T03:01:54;102847.38;;;-4.37;78.24
75420;BME280;63998;52.488;13.428;2022-12-18T03:04:28;102835.25;;;-4.31;78.21
75420;BME280;63998;52.488;13.428;2022-12-18T03:06:58;102835.41;;;-4.21;77.78
75420;BME280;63998;52.488;13.428;2022-12-18T03:09:33;102834.69;;;-3.92;78.42
75420;BME280;63998;52.488;13.428;2022-12-18T03:12:07;102841.13;;;-3.69;78.47
75420;BME280;63998;52.488;13.428;2022-12-18T03:15:06;102840.28;;;-3.78;76.48
75420;BME280;63998;52.488;13.428;2022-12-18T03:17:36;102840.28;;;-3.78;75.97
75420;BME280;63998;52.488;13.428;2022-12-18T03:20:15;102837.81;;;-3.86;75.61
75420;BME280;63998;52.488;13.428;2022-12-18T03:22:45;102842.78;;;-3.96;75.85
75420;BME280;63998;52.488;13.428;2022-12-18T03:25:14;102842.13;;;-3.85;76.11
75420;BME280;63998;52.488;13.428;2022-12-18T03:27:46;102844.78;;;-3.75;76.53
75420;BME280;63998;52.488;13.428;2022-12-18T03:30:15;102848.09;;;-4.21;75.24
75420;BME280;63998;52.488;13.428;2022-12-18T03:35:24;102848.81;;;-4.22;76.30
75420;BME280;63998;52.488;13.428;2022-12-18T03:37:51;102850.31;;;-4.24;76.34
75420;BME280;63998;52.488;13.428;2022-12-18T03:40:17;102850.03;;;-4.27;76.63
75420;BME280;63998;52.488;13.428;2022-12-18T03:43:18;102841.84;;;-4.33;76.40
75420;BME280;63998;52.488;13.428;2022-12-18T03:46:02;102835.25;;;-4.31;76.49
75420;BME280;63998;52.488;13.428;2022-12-18T03:48:32;102833.66;;;-4.56;76.02
75420;BME280;63998;52.488;13.428;2022-12-18T03:51:08;102846.97;;;-4.85;75.65
75420;BME280;63998;52.488;13.428;2022-12-18T03:53:56;102849.22;;;-4.88;76.08
75420;BME280;63998;52.488;13.428;2022-12-18T03:56:26;102853.53;;;-4.87;76.55
75420;BME280;63998;52.488;13.428;2022-12-18T03:58:57;102851.56;;;-4.81;77.79
75420;BME280;63998;52.488;13.428;2022-12-18T04:01:33;102846.81;;;-4.78;77.57
75420;BME280;63998;52.488;13.428;2022-12-18T04:04:00;102850.41;;;-4.76;77.39
75420;BME280;63998;52.488;13.428;2022-12-18T04:06:28;102844.72;;;-4.64;77.82
75420;BME280;63998;52.488;13.428;2022-12-18T04:08:57;102845.31;;;-4.58;77.05
75420;BME280;63998;52.488;13.428;2022-12-18T04:11:26;102843.22;;;-4.54;77.60
75420;BME280;63998;52.488;13.428;2022-12-18T04:13:55;102839.34;;;-4.50;76.58
75420;BME280;63998;52.488;13.428;2022-12-18T04:16:22;102852.47;;;-4.63;76.48
75420;BME280;63998;52.488;13.428;2022-12-18T04:18:53;102857.72;;;-4.70;77.20
75420;BME280;63998;52.488;13.428;2022-12-18T04:21:19;102852.75;;;-4.34;77.76
75420;BME280;63998;52.488;13.428;2022-12-18T04:23:47;102863.81;;;-4.59;76.70
75420;BME280;63998;52.488;13.428;2022-12-18T04:26:18;102862.03;;;-4.60;76.51
75420;BME280;63998;52.488;13.428;2022-12-18T04:28:43;102869.75;;;-4.50;77.03
75420;BME280;63998;52.488;13.428;2022-12-18T04:31:08;102873.34;;;-4.48;77.11
75420;BME280;63998;52.488;13.428;2022-12-18T04:33:34;102862.28;;;-4.40;76.23
75420;BME280;63998;52.488;13.428;2022-12-18T04:35:59;102861.22;;;-4.42;76.31
75420;BME280;63998;52.488;13.428;2022-12-18T04:38:25;102862.03;;;-4.60;76.74
75420;BME280;63998;52.488;13.428;2022-12-18T04:40:52;102873.38;;;-4.83;76.51
75420;BME280;63998;52.488;13.428;2022-12-18T04:43:18;102879.00;;;-4.77;76.23
75420;BME280;63998;52.488;13.428;2022-12-18T04:45:43;102876.78;;;-4.74;76.70
75420;BME280;63998;52.488;13.428;2022-12-18T04:48:08;102875.75;;;-4.76;76.27
75420;BME280;63998;52.488;13.428;2022-12-18T04:50:34;102876.94;;;-4.63;76.85
75420;BME280;63998;52.488;13.428;2022-12-18T04:52:59;102884.06;;;-5.11;76.34
75420;BME280;63998;52.488;13.428;2022-12-18T04:55:27;102874.50;;;-5.14;76.52
75420;BME280;63998;52.488;13.428;2022-12-18T04:57:55;102878.38;;;-5.17;76.84
75420;BME280;63998;52.488;13.428;2022-12-18T05:00:21;102872.41;;;-5.26;77.00
75420;BME280;63998;52.488;13.428;2022-12-18T05:02:46;102873.34;;;-5.09;77.64
75420;BME280;63998;52.488;13.428;2022-12-18T05:05:11;102879.00;;;-4.94;77.98
75420;BME280;63998;52.488;13.428;2022-12-18T05:07:37;102882.22;;;-5.29;77.81
75420;BME280;63998;52.488;13.428;2022-12-18T05:10:05;102882.78;;;-5.40;78.07
75420;BME280;63998;52.488;13.428;2022-12-18T05:12:33;102895.59;;;-5.48;78.47
75420;BME280;63998;52.488;13.428;2022-12-18T05:14:58;102891.69;;;-5.53;78.87
75420;BME280;63998;52.488;13.428;2022-12-18T05:17:24;102888.81;;;-5.23;79.61
75420;BME280;63998;52.488;13.428;2022-12-18T05:19:49;102890.88;;;-5.19;79.56
75420;BME280;63998;52.488;13.428;2022-12-18T05:22:19;102892.41;;;-5.21;78.50
75420;BME280;63998;52.488;13.428;2022-12-18T05:24:45;102906.16;;;-5.43;78.46
75420;BME280;63998;52.488;13.428;2022-12-18T05:27:12;102908.75;;;-5.26;77.83
75420;BME280;63998;52.488;13.428;2022-12-18T05:29:38;102903.16;;;-4.89;79.04
75420;BME280;63998;52.488;13.428;2022-12-18T05:32:03;102914.81;;;-4.74;79.13
75420;BME280;63998;52.488;13.428;2022-12-18T05:34:34;102921.78;;;-4.97;77.71
75420;BME280;63998;52.488;13.428;2022-12-18T05:36:59;102928.22;;;-4.57;78.55
75420;BME280;63998;52.488;13.428;2022-12-18T05:39:24;102923.16;;;-4.40;78.17
75420;BME280;63998;52.488;13.428;2022-12-18T05:41:50;102915.72;;;-4.47;77.27
75420;BME280;63998;52.488;13.428;2022-12-18T05:44:15;102926.44;;;-4.58;76.97
75420;BME280;63998;52.488;13.428;2022-12-18T05:46:43;102919.59;;;-4.59;76.87
75420;BME280;63998;52.488;13.428;2022-12-18T05:49:11;102921.34;;;-4.41;77.44
75420;BME280;63998;52.488;13.428;2022-12-18T05:51:36;102917.31;;;-4.91;76.33
75420;BME280;63998;52.488;13.428;2022-12-18T05:54:04;102922.53;;;-4.81;77.73
75420;BME280;63998;52.488;13.428;2022-12-18T05:56:29;102924.59;;;-5.11;77.22
75420;BME280;63998;52.488;13.428;2022-12-18T05:58:57;102924.94;;;-4.82;77.85
75420;BME280;63998;52.488;13.428;2022-12-18T06:01:25;102934.16;;;-5.00;78.68
75420;BME280;63998;52.488;13.428;2022-12-18T06:03:51;102928.47;;;-5.06;77.42
75420;BME280;63998;52.488;13.428;2022-12-18T06:06:22;102930.09;;;-5.15;78.57
75420;BME280;63998;52.488;13.428;2022-12-18T06:08:51;102935.88;;;-5.16;78.01
75420;BME280;63998;52.488;13.428;2022-12-18T06:11:24;102948.94;;;-5.37;77.68
75420;BME280;63998;52.488;13.428;2022-12-18T06:13:51;102948.84;;;-5.55;78.30
75420;BME280;63998;52.488;13.428;2022-12-18T06:16:16;102940.25;;;-5.57;78.82
75420;BME280;63998;52.488;13.428;2022-12-18T06:18:42;102937.34;;;-5.35;79.48
75420;BME280;63998;52.488;13.428;2022-12-18T06:21:12;102949.84;;;-5.28;80.01
75420;BME280;63998;52.488;13.428;2022-12-18T06:23:37;102959.31;;;-5.52;79.35
75420;BME280;63998;52.488;13.428;2022-12-18T06:26:07;102953.94;;;-5.55;79.49
75420;BME280;63998;52.488;13.428;2022-12-18T06:28:37;102953.25;;;-5.45;79.31
75420;BME280;63998;52.488;13.428;2022-12-18T06:31:06;102960.00;;;-5.28;79.56
75420;BME280;63998;52.488;13.428;2022-12-18T06:33:32;102963.25;;;-5.29;79.35
75420;BME280;63998;52.488;13.428;2022-12-18T06:36:03;102964.53;;;-5.09;79.58
75420;BME280;63998;52.488;13.428;2022-12-18T06:38:31;102967.41;;;-4.80;80.34
75420;BME280;63998;52.488;13.428;2022-12-18T06:40:57;102969.94;;;-4.97;79.88
75420;BME280;63998;52.488;13.428;2022-12-18T06:43:23;102969.94;;;-4.97;78.17
75420;BME280;63998;52.488;13.428;2022-12-18T06:45:50;102978.28;;;-4.98;77.84
75420;BME280;63998;52.488;13.428;2022-12-18T06:48:20;102978.28;;;-4.98;78.07
75420;BME280;63998;52.488;13.428;2022-12-18T06:50:46;102981.56;;;-4.82;78.73
75420;BME280;63998;52.488;13.428;2022-12-18T06:53:11;102984.00;;;-4.75;78.88
75420;BME280;63998;52.488;13.428;2022-12-18T06:55:36;102987.69;;;-4.80;78.80
75420;BME280;63998;52.488;13.428;2022-12-18T06:58:05;103004.16;;;-4.50;79.39
75420;BME280;63998;52.488;13.428;2022-12-18T07:00:35;103008.13;;;-4.78;78.07
75420;BME280;63998;52.488;13.428;2022-12-18T07:03:00;103004.53;;;-4.89;77.95
75420;BME280;63998;52.488;13.428;2022-12-18T07:05:28;102999.47;;;-4.89;78.69
75420;BME280;63998;52.488;13.428;2022-12-18T07:07:53;102991.13;;;-4.79;78.60
75420;BME280;63998;52.488;13.428;2022-12-18T07:10:18;102983.66;;;-4.78;77.85
75420;BME280;63998;52.488;13.428;2022-12-18T07:12:44;102979.50;;;-4.77;78.52
75420;BME280;63998;52.488;13.428;2022-12-18T07:15:09;102977.31;;;-4.48;78.25
75420;BME280;63998;52.488;13.428;2022-12-18T07:17:35;102990.59;;;-4.25;78.66
75420;BME280;63998;52.488;13.428;2022-12-18T07:20:00;102999.22;;;-4.06;78.98
75420;BME280;63998;52.488;13.428;2022-12-18T07:22:26;102991.03;;;-4.12;78.98
75420;BME280;63998;52.488;13.428;2022-12-18T07:24:54;102987.88;;;-4.01;78.28
75420;BME280;63998;52.488;13.428;2022-12-18T07:27:20;103001.88;;;-3.95;78.62
75420;BME280;63998;52.488;13.428;2022-12-18T07:29:48;103002.22;;;-4.01;77.97
75420;BME280;63998;52.488;13.428;2022-12-18T07:32:16;102997.13;;;-3.84;78.26
75420;BME280;63998;52.488;13.428;2022-12-18T07:34:43;102984.13;;;-3.95;77.62
75420;BME280;63998;52.488;13.428;2022-12-18T07:37:09;102990.25;;;-4.19;76.45
75420;BME280;63998;52.488;13.428;2022-12-18T07:39:34;103003.69;;;-3.94;76.94
75420;BME280;63998;52.488;13.428;2022-12-18T07:42:02;102994.47;;;-4.37;76.43
75420;BME280;63998;52.488;13.428;2022-12-18T07:44:46;102997.75;;;-4.21;77.29
75420;BME280;63998;52.488;13.428;2022-12-18T07:47:11;102992.06;;;-4.01;77.69
75420;BME280;63998;52.488;13.428;2022-12-18T07:49:37;102993.69;;;-4.02;76.90
75420;BME280;63998;52.488;13.428;2022-12-18T07:52:04;102999.53;;;-4.03;77.75
75420;BME280;63998;52.488;13.428;2022-12-18T07:54:33;103006.03;;;-3.70;77.86
75420;BME280;63998;52.488;13.428;2022-12-18T07:56:59;102987.16;;;-3.55;77.73
75420;BME280;63998;52.488;13.428;2022-12-18T07:59:24;102980.88;;;-3.50;77.14
75420;BME280;63998;52.488;13.428;2022-12-18T08:01:50;102985.03;;;-3.42;76.69
75420;BME280;63998;52.488;13.428;2022-12-18T08:04:17;102990.19;;;-3.68;75.54
75420;BME280;63998;52.488;13.428;2022-12-18T08:06:45;102991.38;;;-3.64;75.66
75420;BME280;63998;52.488;13.428;2022-12-18T08:09:10;102991.19;;;-3.57;76.10
75420;BME280;63998;52.488;13.428;2022-12-18T08:11:38;103003.56;;;-3.43;75.94
75420;BME280;63998;52.488;13.428;2022-12-18T08:14:04;103002.03;;;-3.32;76.92
75420;BME280;63998;52.488;13.428;2022-12-18T08:16:29;103001.44;;;-3.30;76.81
75420;BME280;63998;52.488;13.428;2022-12-18T08:18:55;103001.78;;;-3.44;76.05
75420;BME280;63998;52.488;13.428;2022-12-18T08:21:27;103009.88;;;-3.12;77.22
75420;BME280;63998;52.488;13.428;2022-12-18T08:23:58;103010.22;;;-2.90;77.32
75420;BME280;63998;52.488;13.428;2022-12-18T08:26:24;103005.13;;;-2.90;76.51
75420;BME280;63998;52.488;13.428;2022-12-18T08:28:50;103014.03;;;-2.76;75.90
75420;BME280;63998;52.488;13.428;2022-12-18T08:31:17;103011.22;;;-3.15;74.20
75420;BME280;63998;52.488;13.428;2022-12-18T08:33:48;103010.72;;;-3.39;73.45
75420;BME280;63998;52.488;13.428;2022-12-18T08:36:13;103015.59;;;-3.59;73.19
75420;BME280;63998;52.488;13.428;2022-12-18T08:38:39;103013.06;;;-3.76;73.54
75420;BME280;63998;52.488;13.428;2022-12-18T08:41:08;103021.25;;;-3.70;74.15
75420;BME280;63998;52.488;13.428;2022-12-18T08:43:37;103024.16;;;-3.84;74.05
75420;BME280;63998;52.488;13.428;2022-12-18T08:46:22;103028.44;;;-3.66;74.53
75420;BME280;63998;52.488;13.428;2022-12-18T08:48:51;103031.75;;;-3.84;75.25
75420;BME280;63998;52.488;13.428;2022-12-18T08:51:17;103028.75;;;-3.80;74.87
75420;BME280;63998;52.488;13.428;2022-12-18T08:53:42;103020.06;;;-3.65;74.94
75420;BME280;63998;52.488;13.428;2022-12-18T08:56:10;103029.81;;;-3.34;76.58
75420;BME280;63998;52.488;13.428;2022-12-18T08:58:36;103045.88;;;-3.07;77.07
75420;BME280;63998;52.488;13.428;2022-12-18T09:01:06;103048.00;;;-3.20;75.47
75420;BME280;63998;52.488;13.428;2022-12-18T09:03:34;103058.41;;;-3.00;75.31
75420;BME280;63998;52.488;13.428;2022-12-18T09:06:02;103051.66;;;-2.64;76.07
75420;BME280;63998;52.488;13.428;2022-12-18T09:08:28;103050.97;;;-2.53;76.18
75420;BME280;63998;52.488;13.428;2022-12-18T09:10:56;103044.09;;;-2.54;74.82
75420;BME280;63998;52.488;13.428;2022-12-18T09:13:24;103046.75;;;-2.98;73.01
75420;BME280;63998;52.488;13.428;2022-12-18T09:15:52;103055.78;;;-3.10;72.89
75420;BME280;63998;52.488;13.428;2022-12-18T09:18:19;103052.97;;;-3.31;72.91
75420;BME280;63998;52.488;13.428;2022-12-18T09:20:47;103055.31;;;-3.59;73.17
75420;BME280;63998;52.488;13.428;2022-12-18T09:23:13;103066.66;;;-3.56;73.32
75420;BME280;63998;52.488;13.428;2022-12-18T09:25:39;103059.75;;;-3.40;74.80
75420;BME280;63998;52.488;13.428;2022-12-18T09:28:09;103058.72;;;-3.50;73.62
75420;BME280;63998;52.488;13.428;2022-12-18T09:30:38;103059.78;;;-3.66;74.18
75420;BME280;63998;52.488;13.428;2022-12-18T09:33:03;103066.38;;;-3.59;74.38
75420;BME280;63998;52.488;13.428;2022-12-18T09:35:29;103063.03;;;-3.41;74.67
75420;BME280;63998;52.488;13.428;2022-12-18T09:37:54;103062.69;;;-3.27;75.33
75420;BME280;63998;52.488;13.428;2022-12-18T09:40:23;103052.75;;;-3.06;76.27
75420;BME280;63998;52.488;13.428;2022-12-18T09:42:59;103044.97;;;-2.99;76.59
75420;BME280;63998;52.488;13.428;2022-12-18T09:45:26;103032.41;;;-3.06;75.85
75420;BME280;63998;52.488;13.428;2022-12-18T09:47:54;103030.75;;;-2.97;75.77
75420;BME280;63998;52.488;13.428;2022-12-18T09:50:36;103034.41;;;-3.12;75.74
75420;BME280;63998;52.488;13.428;2022-12-18T09:53:14;103040.25;;;-2.86;76.78
75420;BME280;63998;52.488;13.428;2022-12-18T09:55:42;103035.34;;;-2.93;75.86
75420;BME280;63998;52.488;13.428;2022-12-18T10:00:37;103020.19;;;-3.10;76.33
75420;BME280;63998;52.488;13.428;2022-12-18T10:03:13;103010.28;;;-3.07;76.23
75420;BME280;63998;52.488;13.428;2022-12-18T10:08:24;103002.00;;;-3.23;77.55
75420;BME280;63998;52.488;13.428;2022-12-18T10:16:41;102987.09;;;-2.56;78.25
75420;BME280;63998;52.488;13.428;2022-12-18T10:19:53;102985.06;;;-2.60;78.00
75420;BME280;63998;52.488;13.428;2022-12-18T10:25:05;102994.44;;;-2.59;77.03
75420;BME280;63998;52.488;13.428;2022-12-18T10:27:31;102991.94;;;-2.40;78.13
75420;BME280;63998;52.488;13.428;2022-12-18T10:29:57;102988.22;;;-2.25;78.37
75420;BME280;63998;52.488;13.428;2022-12-18T10:32:25;102984.06;;;-2.33;77.91
75420;BME280;63998;52.488;13.428;2022-12-18T10:34:54;102984.13;;;-2.04;77.94
75420;BME280;63998;52.488;13.428;2022-12-18T10:37:21;102979.66;;;-2.06;77.37
75420;BME280;63998;52.488;13.428;2022-12-18T10:40:07;102972.00;;;-1.88;77.07
75420;BME280;63998;52.488;13.428;2022-12-18T10:42:33;102969.34;;;-1.79;77.72
75420;BME280;63998;52.488;13.428;2022-12-18T10:45:19;102963.66;;;-2.24;76.26
75420;BME280;63998;52.488;13.428;2022-12-18T10:47:46;102963.56;;;-2.15;76.01
75420;BME280;63998;52.488;13.428;2022-12-18T10:50:25;102963.06;;;-1.93;76.35
75420;BME280;63998;52.488;13.428;2022-12-18T10:52:55;102962.06;;;-1.85;77.28
75420;BME280;63998;52.488;13.428;2022-12-18T10:55:22;102953.28;;;-1.49;78.19
75420;BME280;63998;52.488;13.428;2022-12-18T10:57:47;102955.84;;;-1.39;77.76
75420;BME280;63998;52.488;13.428;2022-12-18T11:00:25;102954.38;;;-1.06;78.19
75420;BME280;63998;52.488;13.428;2022-12-18T11:02:54;102946.47;;;-0.89;78.51
75420;BME280;63998;52.488;13.428;2022-12-18T11:05:31;102940.84;;;-0.95;77.17
75420;BME280;63998;52.488;13.428;2022-12-18T11:07:58;102942.38;;;-0.97;76.49
75420;BME280;63998;52.488;13.428;2022-12-18T11:10:36;102941.63;;;-1.06;75.40
75420;BME280;63998;52.488;13.428;2022-12-18T11:13:26;102944.16;;;-0.96;74.98
75420;BME280;63998;52.488;13.428;2022-12-18T11:15:55;102941.47;;;-1.18;73.95
75420;BME280;63998;52.488;13.428;2022-12-18T11:18:32;102940.84;;;-1.26;74.58
75420;BME280;63998;52.488;13.428;2022-12-18T11:21:09;102932.72;;;-1.12;74.23
75420;BME280;63998;52.488;13.428;2022-12-18T11:23:37;102936.25;;;-1.30;73.33
75420;BME280;63998;52.488;13.428;2022-12-18T11:26:09;102938.66;;;-1.21;74.21
75420;BME280;63998;52.488;13.428;2022-12-18T11:28:36;102937.25;;;-1.38;72.83
75420;BME280;63998;52.488;13.428;2022-12-18T11:31:27;102939.00;;;-1.47;73.90
75420;BME280;63998;52.488;13.428;2022-12-18T11:34:22;102936.72;;;-1.44;74.54
75420;BME280;63998;52.488;13.428;2022-12-18T11:36:51;102948.19;;;-1.49;74.26
75420;BME280;63998;52.488;13.428;2022-12-18T11:39:20;102955.84;;;-1.49;74.97
75420;BME280;63998;52.488;13.428;2022-12-18T11:42:04;102941.03;;;-1.53;74.80
75420;BME280;63998;52.488;13.428;2022-12-18T11:44:53;102938.38;;;-1.34;76.22
75420;BME280;63998;52.488;13.428;2022-12-18T11:47:49;102946.72;;;-1.06;76.98
75420;BME280;63998;52.488;13.428;2022-12-18T11:50:20;102951.59;;;-0.99;76.86
75420;BME280;63998;52.488;13.428;2022-12-18T11:52:49;102958.97;;;-0.92;76.40
75420;BME280;63998;52.488;13.428;2022-12-18T11:55:35;102963.19;;;-1.03;74.46
75420;BME280;63998;52.488;13.428;2022-12-18T12:03:47;102971.19;;;-1.19;74.56
75420;BME280;63998;52.488;13.428;2022-12-18T12:06:34;102971.31;;;-1.07;74.58
75420;BME280;63998;52.488;13.428;2022-12-18T12:14:45;102975.31;;;-1.00;73.84
75420;BME280;63998;52.488;13.428;2022-12-18T12:17:30;102988.22;;;-1.38;72.62
75420;BME280;63998;52.488;13.428;2022-12-18T12:20:20;102975.97;;;-1.42;73.71
75420;BME280;63998;52.488;13.428;2022-12-18T12:25:41;102972.97;;;-1.18;75.12
75420;BME280;63998;52.488;13.428;2022-12-18T12:33:56;102985.59;;;-0.99;75.27
75420;BME280;63998;52.488;13.428;2022-12-18T12:39:06;103000.75;;;-1.11;75.11
75420;BME280;63998;52.488;13.428;2022-12-18T12:41:34;103001.03;;;-1.08;74.70
75420;BME280;63998;52.488;13.428;2022-12-18T12:44:24;102985.50;;;-0.90;75.73
75420;BME280;63998;52.488;13.428;2022-12-18T12:46:52;102990.88;;;-0.87;74.12
75420;BME280;63998;52.488;13.428;2022-12-18T12:49:22;102992.13;;;-1.02;73.88
75420;BME280;63998;52.488;13.428;2022-12-18T12:51:59;102995.22;;;-0.76;75.16
75420;BME280;63998;52.488;13.428;2022-12-18T12:54:28;102978.75;;;-0.80;74.71
75420;BME280;63998;52.488;13.428;2022-12-18T12:57:06;102967.50;;;-0.82;73.41
75420;BME280;63998;52.488;13.428;2022-12-18T12:59:47;102958.97;;;-0.82;73.68
75420;BME280;63998;52.488;13.428;2022-12-18T13:02:37;102951.06;;;-0.75;74.07
75420;BME280;63998;52.488;13.428;2022-12-18T13:05:28;102941.72;;;-0.54;74.22
75420;BME280;63998;52.488;13.428;2022-12-18T13:08:04;102941.03;;;-0.31;75.97
75420;BME280;63998;52.488;13.428;2022-12-18T13:13:00;102928.34;;;-0.62;72.45
75420;BME280;63998;52.488;13.428;2022-12-18T13:16:05;102938.31;;;-0.65;73.62
75420;BME280;63998;52.488;13.428;2022-12-18T13:18:32;102947.59;;;-1.06;72.37
75420;BME280;63998;52.488;13.428;2022-12-18T13:25:52;102945.25;;;-1.54;73.51
75420;BME280;63998;52.488;13.428;2022-12-18T13:30:57;102943.41;;;-1.26;74.48
75420;BME280;63998;52.488;13.428;2022-12-18T13:41:00;102942.91;;;-0.91;76.39
75420;BME280;63998;52.488;13.428;2022-12-18T13:43:36;102940.09;;;-1.04;73.98
75420;BME280;63998;52.488;13.428;2022-12-18T13:46:30;102948.50;;;-1.26;73.09
75420;BME280;63998;52.488;13.428;2022-12-18T13:51:42;102917.38;;;-1.32;74.43
75420;BME280;63998;52.488;13.428;2022-12-18T13:54:35;102910.53;;;-1.13;74.46
75420;BME280;63998;52.488;13.428;2022-12-18T13:57:03;102926.31;;;-1.06;74.80
75420;BME280;63998;52.488;13.428;2022-12-18T13:59:36;102931.41;;;-1.06;74.47
75420;BME280;63998;52.488;13.428;2022-12-18T14:04:41;102915.72;;;-1.21;72.74